Time;durP1;ratioP1;P1;durP2;ratioP2;P2;SDS_P1;SDS_P2;PMS_P1;PMS_P2;Temp;Humidity;BMP_temperature;BMP_pressure;BME280_temperature;BME280_humidity;BME280_pressure;Samples;Min_cycle;Max_cycle;Signal;HPM_P1;HPM_P2
2022/05/18 00:01:50;;;;;;;13.63;8.82;;;;;;;;;;5075827;28;20428;-79
2022/05/18 00:04:16;;;;;;;14.50;9.02;;;;;;;;;;5058672;28;20028;-80
2022/05/18 00:06:41;;;;;;;12.93;8.90;;;;;;;;;;5059422;28;20491;-81
2022/05/18 00:09:07;;;;;;;13.73;9.15;;;;;;;;;;5093707;28;20024;-83
2022/05/18 00:11:33;;;;;;;14.95;8.45;;;;;;;;;;5075739;28;20654;-81
2022/05/18 00:13:58;;;;;;;15.80;9.25;;;;;;;;;;5093280;28;20535;-83
2022/05/18 00:16:26;;;;;;;13.90;8.37;;;;;;;;;;5059214;28;20169;-84
2022/05/18 00:18:53;;;;;;;15.13;9.05;;;;;;;;;;5039641;28;20059;-84
2022/05/18 00:21:18;;;;;;;11.73;8.23;;;;;;;;;;5075555;28;20024;-82
2022/05/18 00:23:44;;;;;;;12.43;8.57;;;;;;;;;;5058613;28;20471;-82
2022/05/18 00:26:10;;;;;;;12.05;8.43;;;;;;;;;;5093368;28;20060;-83
2022/05/18 00:28:35;;;;;;;13.80;8.50;;;;;;;;;;5092540;28;20052;-83
2022/05/18 00:31:01;;;;;;;11.43;8.32;;;;;;;;;;5075187;28;20032;-81
2022/05/18 00:33:27;;;;;;;12.40;8.68;;;;;;;;;;5058590;28;20031;-82
2022/05/18 00:35:53;;;;;;;17.98;9.38;;;;;;;;;;5075391;28;20088;-82
2022/05/18 00:38:19;;;;;;;14.57;9.40;;;;;;;;;;5075138;28;20024;-81
2022/05/18 00:40:45;;;;;;;13.30;9.38;;;;;;;;;;5093275;28;20555;-82
2022/05/18 00:43:16;;;;;;;13.65;8.40;;;;;;;;;;5058241;28;20031;-81
2022/05/18 00:45:42;;;;;;;14.48;8.70;;;;;;;;;;5093379;28;20024;-80
2022/05/18 00:48:08;;;;;;;14.30;7.65;;;;;;;;;;5074678;28;20073;-80
2022/05/18 00:50:34;;;;;;;11.52;8.10;;;;;;;;;;5059564;28;20396;-81
2022/05/18 00:53:00;;;;;;;12.82;8.40;;;;;;;;;;5093610;28;20080;-83
2022/05/18 00:55:28;;;;;;;17.58;9.35;;;;;;;;;;5092873;28;20467;-81
2022/05/18 00:58:16;;;;;;;11.85;7.70;;;;;;;;;;5092564;28;20088;-81
2022/05/18 01:00:42;;;;;;;13.18;7.97;;;;;;;;;;5093353;28;20032;-83
2022/05/18 01:03:14;;;;;;;13.77;8.98;;;;;;;;;;5074997;28;20073;-81
2022/05/18 01:05:40;;;;;;;15.80;9.50;;;;;;;;;;5074710;28;20066;-82
2022/05/18 01:08:06;;;;;;;13.35;8.77;;;;;;;;;;5092654;28;20035;-80
2022/05/18 01:10:31;;;;;;;12.15;9.25;;;;;;;;;;5074677;28;20032;-79
2022/05/18 01:12:59;;;;;;;10.98;8.55;;;;;;;;;;5092346;28;20482;-80
2022/05/18 01:15:24;;;;;;;10.85;7.88;;;;;;;;;;5092675;28;20063;-80
2022/05/18 01:17:53;;;;;;;14.70;9.40;;;;;;;;;;5074221;28;20112;-80
2022/05/18 01:20:28;;;;;;;15.05;8.93;;;;;;;;;;5057896;28;20024;-80
2022/05/18 01:23:09;;;;;;;13.98;9.05;;;;;;;;;;5074295;28;20111;-80
2022/05/18 01:25:57;;;;;;;10.85;8.45;;;;;;;;;;5074374;28;20495;-80
2022/05/18 01:28:24;;;;;;;13.65;9.15;;;;;;;;;;5081279;28;20032;-80
2022/05/18 01:30:49;;;;;;;10.38;8.50;;;;;;;;;;5092465;28;20031;-79
2022/05/18 01:33:17;;;;;;;11.15;8.80;;;;;;;;;;5092240;28;20051;-80
2022/05/18 01:35:44;;;;;;;12.63;9.25;;;;;;;;;;5092252;28;20024;-79
2022/05/18 01:38:12;;;;;;;12.30;8.88;;;;;;;;;;5092048;28;20066;-80
2022/05/18 01:40:40;;;;;;;15.85;8.75;;;;;;;;;;5057265;28;20039;-82
2022/05/18 01:43:15;;;;;;;17.13;9.27;;;;;;;;;;5039897;28;20028;-82
2022/05/18 01:45:40;;;;;;;11.20;8.52;;;;;;;;;;5092697;28;20028;-79
2022/05/18 01:48:07;;;;;;;13.40;9.10;;;;;;;;;;5074866;28;20038;-82
2022/05/18 01:50:32;;;;;;;13.02;9.20;;;;;;;;;;5074140;28;20038;-83
2022/05/18 01:52:58;;;;;;;11.13;8.82;;;;;;;;;;5091668;28;20481;-82
2022/05/18 01:55:24;;;;;;;14.13;9.43;;;;;;;;;;5073868;28;20439;-83
2022/05/18 01:57:49;;;;;;;14.63;9.30;;;;;;;;;;5074152;28;20502;-83
2022/05/18 02:00:15;;;;;;;13.45;8.90;;;;;;;;;;5074021;28;20028;-83
2022/05/18 02:02:41;;;;;;;12.77;9.70;;;;;;;;;;5073722;28;20024;-83
2022/05/18 02:05:07;;;;;;;13.55;9.32;;;;;;;;;;5073907;28;20036;-81
2022/05/18 02:07:33;;;;;;;11.80;9.13;;;;;;;;;;5073815;28;20474;-80
2022/05/18 02:09:58;;;;;;;14.50;9.35;;;;;;;;;;5073889;28;20043;-79
2022/05/18 02:12:24;;;;;;;13.05;9.00;;;;;;;;;;5074061;28;20386;-83
2022/05/18 02:14:49;;;;;;;14.95;9.60;;;;;;;;;;5073226;28;20039;-80
2022/05/18 02:17:15;;;;;;;13.40;9.65;;;;;;;;;;5056889;28;20042;-79
2022/05/18 02:19:40;;;;;;;13.15;8.43;;;;;;;;;;5073834;28;20050;-80
2022/05/18 02:22:06;;;;;;;12.07;8.77;;;;;;;;;;5091647;28;20051;-80
2022/05/18 02:24:31;;;;;;;12.48;9.48;;;;;;;;;;5091383;28;20039;-80
2022/05/18 02:26:56;;;;;;;13.05;9.48;;;;;;;;;;5091395;28;20047;-81
2022/05/18 02:29:22;;;;;;;13.38;10.13;;;;;;;;;;5073630;28;20497;-80
2022/05/18 02:31:47;;;;;;;13.38;9.45;;;;;;;;;;5091690;28;20081;-80
2022/05/18 02:34:13;;;;;;;17.25;10.55;;;;;;;;;;5037059;28;20063;-79
2022/05/18 02:36:38;;;;;;;12.77;9.77;;;;;;;;;;5087013;28;20491;-81
2022/05/18 02:39:04;;;;;;;14.60;9.65;;;;;;;;;;5073165;28;20028;-82
2022/05/18 02:41:29;;;;;;;14.02;9.80;;;;;;;;;;5073306;28;20044;-81
2022/05/18 02:43:54;;;;;;;13.35;9.50;;;;;;;;;;5091240;28;20479;-80
2022/05/18 02:46:21;;;;;;;11.43;9.05;;;;;;;;;;5062963;28;20420;-81
2022/05/18 02:48:47;;;;;;;12.43;8.90;;;;;;;;;;5069706;28;20032;-81
2022/05/18 02:51:14;;;;;;;14.88;10.00;;;;;;;;;;5074500;28;20403;-80
2022/05/18 02:53:40;;;;;;;10.00;8.35;;;;;;;;;;5094712;28;20103;-81
2022/05/18 02:56:07;;;;;;;16.58;11.68;;;;;;;;;;5076935;28;20145;-82
2022/05/18 02:58:32;;;;;;;20.13;13.82;;;;;;;;;;5076739;28;20051;-80
2022/05/18 03:00:58;;;;;;;10.95;8.85;;;;;;;;;;5077229;28;20562;-80
2022/05/18 03:03:23;;;;;;;13.93;9.15;;;;;;;;;;5094771;28;20023;-80
2022/05/18 03:05:49;;;;;;;11.20;8.32;;;;;;;;;;5077111;28;20227;-83
2022/05/18 03:08:14;;;;;;;12.75;8.40;;;;;;;;;;5060471;28;20032;-84
2022/05/18 03:10:41;;;;;;;11.23;8.68;;;;;;;;;;5079047;28;20519;-86
2022/05/18 03:13:07;;;;;;;10.43;8.35;;;;;;;;;;5079088;28;20032;-84
2022/05/18 03:15:33;;;;;;;13.98;8.65;;;;;;;;;;5095928;28;20375;-80
2022/05/18 03:17:59;;;;;;;12.13;8.63;;;;;;;;;;5100489;22;20055;-82
2022/05/18 03:25:53;;;;;;;12.38;8.80;;;;;;;;;;5061049;28;20020;-82
2022/05/18 03:28:18;;;;;;;15.45;9.38;;;;;;;;;;5078009;28;20459;-82
2022/05/18 03:30:43;;;;;;;12.43;9.40;;;;;;;;;;5062330;28;20036;-83
2022/05/18 03:33:09;;;;;;;14.35;9.65;;;;;;;;;;5098887;28;20348;-84
2022/05/18 03:35:35;;;;;;;13.25;9.18;;;;;;;;;;5061654;28;20043;-81
2022/05/18 03:38:04;;;;;;;11.35;8.25;;;;;;;;;;5078984;28;20096;-80
2022/05/18 03:40:29;;;;;;;12.55;9.02;;;;;;;;;;5099139;28;20161;-80
2022/05/18 03:42:55;;;;;;;12.48;9.38;;;;;;;;;;5097403;28;20505;-82
2022/05/18 03:45:20;;;;;;;14.20;9.98;;;;;;;;;;5076741;28;20032;-81
2022/05/18 03:47:45;;;;;;;11.98;8.77;;;;;;;;;;5094478;28;20028;-81
2022/05/18 03:50:14;;;;;;;12.10;8.30;;;;;;;;;;5094204;28;20433;-80
2022/05/18 03:52:39;;;;;;;12.93;8.00;;;;;;;;;;5076069;28;20097;-81
2022/05/18 03:55:05;;;;;;;16.27;8.75;;;;;;;;;;5060759;28;20510;-80
2022/05/18 03:57:30;;;;;;;12.82;8.88;;;;;;;;;;5081599;28;20020;-82
2022/05/18 03:59:56;;;;;;;11.95;8.18;;;;;;;;;;5095518;28;20028;-82
2022/05/18 04:02:21;;;;;;;12.45;9.43;;;;;;;;;;5101823;28;20031;-82
2022/05/18 04:04:47;;;;;;;17.45;10.10;;;;;;;;;;5118526;28;20016;-82
2022/05/18 04:07:12;;;;;;;13.38;9.10;;;;;;;;;;5080585;28;20024;-82
2022/05/18 04:09:38;;;;;;;15.00;8.77;;;;;;;;;;5094947;28;20411;-82
2022/05/18 04:12:03;;;;;;;15.40;8.43;;;;;;;;;;5075938;28;20510;-82
2022/05/18 04:14:29;;;;;;;11.93;9.15;;;;;;;;;;5075176;28;20059;-80
2022/05/18 04:16:54;;;;;;;15.40;8.73;;;;;;;;;;5093445;28;21295;-80
2022/05/18 04:19:20;;;;;;;12.30;8.60;;;;;;;;;;5075589;28;20584;-80
2022/05/18 04:21:45;;;;;;;10.93;7.82;;;;;;;;;;5076144;28;20599;-79
2022/05/18 04:24:10;;;;;;;15.68;8.50;;;;;;;;;;5093528;28;20032;-81
2022/05/18 04:26:36;;;;;;;12.02;7.95;;;;;;;;;;5093512;28;20024;-81
2022/05/18 04:29:01;;;;;;;11.15;8.02;;;;;;;;;;5058909;28;20443;-81
2022/05/18 04:31:27;;;;;;;12.85;9.18;;;;;;;;;;5062029;28;20112;-81
2022/05/18 04:33:52;;;;;;;15.10;8.65;;;;;;;;;;5080191;28;20051;-81
2022/05/18 04:36:18;;;;;;;12.07;8.63;;;;;;;;;;5081175;28;20086;-82
2022/05/18 04:38:43;;;;;;;9.55;7.63;;;;;;;;;;5042161;28;20123;-81
2022/05/18 04:41:11;;;;;;;14.88;9.50;;;;;;;;;;5058648;28;20028;-82
2022/05/18 04:43:37;;;;;;;16.52;9.35;;;;;;;;;;5058145;28;20475;-82
2022/05/18 04:46:02;;;;;;;12.43;8.80;;;;;;;;;;5062017;28;20112;-83
2022/05/18 04:48:31;;;;;;;12.68;8.35;;;;;;;;;;5069752;28;20082;-81
2022/05/18 04:51:00;;;;;;;11.45;8.10;;;;;;;;;;5059158;28;20062;-82
2022/05/18 04:53:25;;;;;;;13.98;8.52;;;;;;;;;;5075059;28;20028;-82
2022/05/18 04:55:51;;;;;;;10.82;7.90;;;;;;;;;;5058801;28;20384;-81
2022/05/18 04:58:17;;;;;;;12.50;8.20;;;;;;;;;;5075214;28;20059;-82
2022/05/18 05:00:43;;;;;;;14.48;8.73;;;;;;;;;;5093315;28;20020;-82
2022/05/18 05:03:09;;;;;;;13.48;9.57;;;;;;;;;;5074803;28;20031;-82
2022/05/18 05:05:34;;;;;;;12.50;8.27;;;;;;;;;;5075497;28;20020;-84
2022/05/18 05:08:00;;;;;;;12.85;8.77;;;;;;;;;;5074669;28;20391;-80
2022/05/18 05:10:25;;;;;;;12.90;8.40;;;;;;;;;;5074765;28;20027;-81
2022/05/18 05:12:51;;;;;;;11.63;8.70;;;;;;;;;;5062295;28;20020;-81
2022/05/18 05:15:17;;;;;;;12.50;9.00;;;;;;;;;;5054071;28;20035;-82
2022/05/18 05:17:43;;;;;;;11.25;8.05;;;;;;;;;;5070728;28;20468;-83
2022/05/18 05:20:09;;;;;;;16.40;8.52;;;;;;;;;;5048477;28;20059;-81
2022/05/18 05:22:34;;;;;;;11.57;8.02;;;;;;;;;;5055856;28;20068;-81
2022/05/18 05:25:00;;;;;;;16.23;9.80;;;;;;;;;;5071877;28;20108;-84
2022/05/18 05:27:26;;;;;;;11.75;8.85;;;;;;;;;;5051773;28;20035;-82
2022/05/18 05:29:51;;;;;;;11.10;7.72;;;;;;;;;;5030491;28;20034;-81
2022/05/18 05:32:17;;;;;;;10.80;7.95;;;;;;;;;;5054435;28;20373;-81
2022/05/18 05:34:42;;;;;;;15.40;10.38;;;;;;;;;;5075163;28;20032;-83
2022/05/18 05:37:08;;;;;;;11.27;8.98;;;;;;;;;;5066199;28;20107;-82
2022/05/18 05:39:33;;;;;;;14.82;8.40;;;;;;;;;;5070100;28;20502;-79
2022/05/18 05:41:59;;;;;;;16.40;9.25;;;;;;;;;;5071655;28;20028;-80
2022/05/18 05:44:25;;;;;;;14.32;10.00;;;;;;;;;;5066670;28;20136;-80
2022/05/18 05:46:50;;;;;;;14.82;9.25;;;;;;;;;;5071882;28;20034;-81
2022/05/18 05:49:16;;;;;;;12.73;9.45;;;;;;;;;;5065946;28;20457;-79
2022/05/18 05:51:41;;;;;;;13.73;9.52;;;;;;;;;;5070653;28;20024;-79
2022/05/18 05:54:08;;;;;;;15.77;10.73;;;;;;;;;;5063692;28;20039;-81
2022/05/18 05:56:33;;;;;;;12.40;9.15;;;;;;;;;;5072425;28;20033;-81
2022/05/18 05:58:59;;;;;;;15.25;10.02;;;;;;;;;;5046719;28;20058;-81
2022/05/18 06:01:24;;;;;;;12.40;9.73;;;;;;;;;;5070399;28;20099;-81
2022/05/18 06:03:50;;;;;;;15.43;10.65;;;;;;;;;;5075173;28;20059;-82
2022/05/18 06:06:19;;;;;;;13.43;9.60;;;;;;;;;;5051614;28;20031;-81
2022/05/18 06:08:44;;;;;;;14.10;9.00;;;;;;;;;;5071967;28;20032;-81
2022/05/18 06:11:10;;;;;;;16.70;9.77;;;;;;;;;;5054943;28;20043;-83
2022/05/18 06:13:35;;;;;;;15.95;9.77;;;;;;;;;;5073762;28;20434;-82
2022/05/18 06:16:02;;;;;;;12.63;9.80;;;;;;;;;;5067906;28;20511;-78
2022/05/18 06:18:29;;;;;;;14.77;10.20;;;;;;;;;;5070127;28;20062;-78
2022/05/18 06:20:55;;;;;;;15.40;10.40;;;;;;;;;;5062673;28;20060;-81
2022/05/18 06:23:21;;;;;;;11.15;8.98;;;;;;;;;;5071607;28;20044;-81
2022/05/18 06:25:49;;;;;;;13.95;9.48;;;;;;;;;;5053841;28;20028;-79
2022/05/18 06:28:14;;;;;;;11.52;9.13;;;;;;;;;;5069356;28;20059;-79
2022/05/18 06:30:41;;;;;;;13.77;9.30;;;;;;;;;;5074258;28;20496;-81
2022/05/18 06:33:06;;;;;;;13.38;9.13;;;;;;;;;;5077178;28;20028;-81
2022/05/18 06:35:32;;;;;;;13.18;9.77;;;;;;;;;;5073562;28;20086;-81
2022/05/18 06:38:08;;;;;;;11.77;9.13;;;;;;;;;;5052729;28;20128;-82
2022/05/18 06:43:29;;;;;;;11.32;7.85;;;;;;;;;;5035884;28;20028;-79
2022/05/18 06:45:55;;;;;;;14.82;8.75;;;;;;;;;;5075123;28;20112;-81
2022/05/18 06:48:20;;;;;;;10.38;8.07;;;;;;;;;;5054592;28;20107;-80
2022/05/18 06:50:46;;;;;;;13.05;8.10;;;;;;;;;;5084115;28;20415;-82
2022/05/18 06:53:11;;;;;;;13.52;9.40;;;;;;;;;;5063166;28;20040;-81
2022/05/18 06:55:37;;;;;;;14.60;8.77;;;;;;;;;;5081429;28;20103;-79
2022/05/18 06:58:03;;;;;;;16.77;9.35;;;;;;;;;;5084591;28;20402;-82
2022/05/18 07:00:28;;;;;;;19.67;8.43;;;;;;;;;;5060493;28;20399;-79
2022/05/18 07:02:54;;;;;;;13.63;8.60;;;;;;;;;;5063946;28;20238;-81
2022/05/18 07:05:19;;;;;;;13.80;9.02;;;;;;;;;;5051831;28;20044;-82
2022/05/18 07:07:45;;;;;;;12.70;8.82;;;;;;;;;;5059430;28;20036;-81
2022/05/18 07:10:10;;;;;;;12.65;9.00;;;;;;;;;;5080461;28;20552;-80
2022/05/18 07:12:37;;;;;;;9.45;7.88;;;;;;;;;;5057107;28;20044;-80
2022/05/18 07:15:06;;;;;;;10.00;7.57;;;;;;;;;;5072737;28;20043;-80
2022/05/18 07:17:32;;;;;;;12.60;8.32;;;;;;;;;;5071970;28;20036;-82
2022/05/18 07:19:58;;;;;;;9.65;7.43;;;;;;;;;;5072571;28;20024;-83
2022/05/18 07:22:24;;;;;;;11.52;8.10;;;;;;;;;;5048202;28;20028;-83
2022/05/18 07:24:50;;;;;;;12.38;8.45;;;;;;;;;;5074531;28;20040;-84
2022/05/18 07:27:15;;;;;;;11.07;7.68;;;;;;;;;;5074775;28;20027;-82
2022/05/18 07:29:41;;;;;;;9.07;7.60;;;;;;;;;;5074687;28;20024;-82
2022/05/18 07:32:12;;;;;;;10.00;6.88;;;;;;;;;;5035242;28;20177;-83
2022/05/18 07:34:41;;;;;;;12.13;7.75;;;;;;;;;;5066725;28;20032;-84
2022/05/18 07:37:07;;;;;;;10.90;7.65;;;;;;;;;;5075056;28;20414;-83
2022/05/18 07:39:34;;;;;;;9.05;7.07;;;;;;;;;;5060161;28;20025;-83
2022/05/18 07:42:00;;;;;;;10.90;8.10;;;;;;;;;;5068512;28;20029;-81
2022/05/18 07:44:26;;;;;;;15.07;8.43;;;;;;;;;;5069967;28;20024;-82
2022/05/18 07:46:52;;;;;;;11.98;7.40;;;;;;;;;;5084194;28;20032;-82
2022/05/18 07:49:17;;;;;;;10.88;7.88;;;;;;;;;;5037304;28;20027;-81
2022/05/18 07:51:43;;;;;;;8.52;6.60;;;;;;;;;;5074743;28;20028;-83
2022/05/18 07:54:09;;;;;;;12.88;8.50;;;;;;;;;;5074602;28;20029;-84
2022/05/18 07:56:34;;;;;;;12.50;8.23;;;;;;;;;;5055081;28;20036;-82
2022/05/18 07:59:00;;;;;;;14.23;8.07;;;;;;;;;;5066324;28;20048;-83
2022/05/18 08:01:26;;;;;;;12.30;8.30;;;;;;;;;;5072469;28;20028;-83
2022/05/18 08:03:51;;;;;;;12.10;8.75;;;;;;;;;;5042674;28;20411;-85
2022/05/18 08:06:17;;;;;;;18.38;8.20;;;;;;;;;;5046188;28;20029;-82
2022/05/18 08:08:42;;;;;;;14.82;7.35;;;;;;;;;;5074290;28;20048;-82
2022/05/18 08:16:36;;;;;;;12.15;7.97;;;;;;;;;;5066277;28;20531;-85
2022/05/18 08:19:06;;;;;;;9.95;6.80;;;;;;;;;;5071518;28;20174;-85
2022/05/18 08:21:31;;;;;;;8.63;6.80;;;;;;;;;;5086881;28;20031;-85
2022/05/18 08:23:57;;;;;;;14.60;7.28;;;;;;;;;;5073020;28;20032;-84
2022/05/18 08:26:22;;;;;;;11.07;7.70;;;;;;;;;;5080362;28;20119;-83
2022/05/18 08:28:48;;;;;;;12.45;7.35;;;;;;;;;;5073005;28;20469;-84
2022/05/18 08:31:17;;;;;;;8.90;6.32;;;;;;;;;;5095650;28;20034;-83
2022/05/18 08:33:43;;;;;;;9.50;5.63;;;;;;;;;;5093819;28;20032;-84
2022/05/18 08:36:08;;;;;;;13.05;6.65;;;;;;;;;;5075760;28;20038;-82
2022/05/18 08:38:35;;;;;;;13.25;5.78;;;;;;;;;;5075823;28;20063;-83
2022/05/18 08:41:07;;;;;;;11.55;6.53;;;;;;;;;;5064462;28;20036;-83
2022/05/18 08:43:34;;;;;;;12.13;6.68;;;;;;;;;;5058236;28;20146;-83
2022/05/18 08:45:59;;;;;;;10.13;6.38;;;;;;;;;;5093081;28;20487;-82
2022/05/18 08:48:36;;;;;;;10.13;7.07;;;;;;;;;;5096579;28;20047;-82
2022/05/18 08:51:03;;;;;;;12.75;6.97;;;;;;;;;;5084629;28;20031;-83
2022/05/18 08:53:32;;;;;;;11.75;6.30;;;;;;;;;;5065521;28;20115;-82
2022/05/18 08:56:02;;;;;;;11.23;6.40;;;;;;;;;;5072547;28;20040;-83
2022/05/18 08:58:44;;;;;;;14.27;8.90;;;;;;;;;;5074263;28;20031;-80
2022/05/18 09:01:15;;;;;;;9.75;5.30;;;;;;;;;;5093624;28;20016;-83
2022/05/18 09:03:43;;;;;;;9.02;5.32;;;;;;;;;;5074848;28;20460;-82
2022/05/18 09:06:30;;;;;;;10.57;5.53;;;;;;;;;;5093122;28;20039;-83
2022/05/18 09:11:47;;;;;;;9.65;5.30;;;;;;;;;;5072768;28;20028;-82
2022/05/18 09:14:17;;;;;;;8.40;4.90;;;;;;;;;;5072155;28;20518;-82
2022/05/18 09:16:44;;;;;;;8.27;4.63;;;;;;;;;;5092960;28;20081;-83
2022/05/18 09:19:19;;;;;;;7.40;4.50;;;;;;;;;;5057826;28;20441;-83
2022/05/18 09:21:58;;;;;;;8.43;4.60;;;;;;;;;;5062925;22;20099;-74
2022/05/18 09:24:27;;;;;;;6.60;5.03;;;;;;;;;;5049992;28;20107;-74
2022/05/18 09:26:52;;;;;;;8.75;4.45;;;;;;;;;;5033349;28;20486;-74
2022/05/18 09:29:36;;;;;;;7.10;4.22;;;;;;;;;;5047395;28;20029;-73
2022/05/18 09:32:01;;;;;;;7.00;4.25;;;;;;;;;;5045612;28;20040;-75
2022/05/18 09:34:45;;;;;;;8.40;4.53;;;;;;;;;;5050056;28;20546;-75
2022/05/18 09:37:30;;;;;;;9.60;4.70;;;;;;;;;;5050076;28;20025;-74
2022/05/18 09:40:00;;;;;;;10.27;4.57;;;;;;;;;;5050142;28;20037;-76
2022/05/18 09:42:28;;;;;;;6.82;4.05;;;;;;;;;;5051410;28;20032;-75
2022/05/18 09:44:58;;;;;;;6.63;3.90;;;;;;;;;;5049097;28;20032;-74
2022/05/18 09:47:25;;;;;;;8.80;4.03;;;;;;;;;;5051107;28;20017;-75
2022/05/18 09:49:53;;;;;;;6.05;3.70;;;;;;;;;;5050398;28;20037;-74
2022/05/18 09:52:20;;;;;;;7.22;3.28;;;;;;;;;;5051479;28;20025;-75
2022/05/18 09:54:45;;;;;;;9.80;3.90;;;;;;;;;;5033452;28;20135;-74
2022/05/18 09:57:23;;;;;;;6.22;3.17;;;;;;;;;;5046754;28;20029;-74
2022/05/18 09:59:54;;;;;;;6.57;3.67;;;;;;;;;;5039289;28;20025;-75
2022/05/18 10:07:57;;;;;;;10.05;3.60;;;;;;;;;;5051130;28;20431;-76
2022/05/18 10:10:28;;;;;;;7.82;3.55;;;;;;;;;;5049740;28;20032;-74
2022/05/18 10:12:54;;;;;;;9.50;3.30;;;;;;;;;;5033110;28;20028;-75
2022/05/18 10:15:25;;;;;;;9.65;3.95;;;;;;;;;;5049518;28;20025;-75
2022/05/18 10:17:55;;;;;;;5.05;2.88;;;;;;;;;;5049691;28;20033;-74
2022/05/18 10:20:21;;;;;;;6.43;3.10;;;;;;;;;;5066640;28;20033;-75
2022/05/18 10:22:46;;;;;;;7.50;2.95;;;;;;;;;;5073704;28;20097;-74
2022/05/18 10:25:14;;;;;;;8.95;3.22;;;;;;;;;;5070684;28;20020;-75
2022/05/18 10:27:42;;;;;;;5.00;2.63;;;;;;;;;;5049780;28;20127;-75
2022/05/18 10:30:14;;;;;;;4.95;2.60;;;;;;;;;;5060682;28;20301;-75
2022/05/18 10:33:00;;;;;;;6.15;3.00;;;;;;;;;;5052731;28;20086;-75
2022/05/18 10:35:31;;;;;;;5.40;2.90;;;;;;;;;;5031213;28;20037;-74
2022/05/18 10:38:00;;;;;;;4.55;2.38;;;;;;;;;;5042673;28;20028;-77
2022/05/18 10:40:26;;;;;;;6.43;3.15;;;;;;;;;;5070744;28;20107;-76
2022/05/18 10:42:55;;;;;;;7.68;3.10;;;;;;;;;;5070341;28;20107;-76
2022/05/18 10:45:22;;;;;;;5.47;2.50;;;;;;;;;;5070692;28;20112;-75
2022/05/18 10:47:49;;;;;;;8.23;3.10;;;;;;;;;;5070814;28;20036;-76
2022/05/18 10:50:26;;;;;;;10.75;4.65;;;;;;;;;;5052549;28;20127;-77
2022/05/18 10:52:58;;;;;;;6.65;3.80;;;;;;;;;;5017831;28;20028;-76
2022/05/18 10:55:25;;;;;;;8.88;3.22;;;;;;;;;;5060165;28;20498;-76
2022/05/18 10:57:57;;;;;;;11.60;3.58;;;;;;;;;;5069323;28;20451;-75
2022/05/18 11:00:26;;;;;;;8.38;3.10;;;;;;;;;;5065468;28;20029;-76
2022/05/18 11:03:15;;;;;;;7.03;2.85;;;;;;;;;;5051456;28;20021;-75
2022/05/18 11:05:42;;;;;;;5.57;2.97;;;;;;;;;;5045139;28;20017;-76
2022/05/18 11:08:15;;;;;;;8.02;2.88;;;;;;;;;;5060483;28;20043;-74
2022/05/18 11:10:47;;;;;;;6.05;2.63;;;;;;;;;;5073681;28;20029;-75
2022/05/18 11:13:32;;;;;;;4.95;2.67;;;;;;;;;;5045745;28;20171;-77
2022/05/18 11:16:04;;;;;;;6.50;2.97;;;;;;;;;;5049167;28;20082;-77
2022/05/18 11:18:35;;;;;;;5.75;2.67;;;;;;;;;;5071231;28;20479;-77
2022/05/18 11:21:10;;;;;;;6.88;2.88;;;;;;;;;;5055871;28;20116;-77
2022/05/18 11:23:50;;;;;;;7.00;2.15;;;;;;;;;;5077528;28;20017;-77
2022/05/18 11:26:28;;;;;;;6.90;2.40;;;;;;;;;;5082434;28;20024;-77
2022/05/18 11:29:09;;;;;;;4.93;2.55;;;;;;;;;;5066394;28;20032;-77
2022/05/18 11:31:40;;;;;;;5.32;2.47;;;;;;;;;;5055980;28;20111;-76
2022/05/18 11:34:21;;;;;;;5.28;2.50;;;;;;;;;;5034432;28;20025;-76
2022/05/18 11:36:53;;;;;;;7.38;2.63;;;;;;;;;;5078987;28;20510;-76
2022/05/18 11:39:18;;;;;;;6.75;2.60;;;;;;;;;;5072481;28;20067;-76
2022/05/18 11:42:02;;;;;;;6.15;2.22;;;;;;;;;;5073800;28;20244;-76
2022/05/18 11:44:32;;;;;;;7.88;2.40;;;;;;;;;;5055373;28;20468;-77
2022/05/18 11:47:07;;;;;;;5.75;2.55;;;;;;;;;;5073461;28;20032;-75
2022/05/18 11:49:51;;;;;;;4.13;2.00;;;;;;;;;;5055782;28;20025;-76
2022/05/18 11:52:28;;;;;;;5.43;2.13;;;;;;;;;;5048436;28;20530;-76
2022/05/18 11:55:12;;;;;;;5.20;2.00;;;;;;;;;;5048113;28;20044;-76
2022/05/18 11:57:45;;;;;;;12.48;2.45;;;;;;;;;;5052037;28;20507;-74
2022/05/18 12:00:44;;;;;;;6.45;2.28;;;;;;;;;;5063536;28;20043;-76
2022/05/18 12:03:10;;;;;;;5.18;2.25;;;;;;;;;;5038230;28;20016;-76
2022/05/18 12:05:38;;;;;;;5.35;2.10;;;;;;;;;;5055720;28;20025;-77
2022/05/18 12:08:10;;;;;;;6.93;1.90;;;;;;;;;;5055227;28;20025;-76
2022/05/18 12:10:44;;;;;;;8.70;2.00;;;;;;;;;;5051715;28;20028;-76
2022/05/18 12:13:13;;;;;;;5.50;1.95;;;;;;;;;;5069266;28;20646;-75
2022/05/18 12:15:44;;;;;;;6.47;2.50;;;;;;;;;;5046191;28;20025;-77
2022/05/18 12:18:15;;;;;;;7.43;2.42;;;;;;;;;;5045114;28;20036;-76
2022/05/18 12:20:46;;;;;;;8.68;2.70;;;;;;;;;;5046758;28;20082;-76
2022/05/18 12:23:14;;;;;;;5.30;2.03;;;;;;;;;;5051848;28;20174;-76
2022/05/18 12:25:40;;;;;;;5.82;1.80;;;;;;;;;;5041536;28;20170;-76
2022/05/18 12:28:07;;;;;;;6.70;1.88;;;;;;;;;;5068644;28;20020;-76
2022/05/18 12:30:34;;;;;;;4.72;2.03;;;;;;;;;;5072484;28;20497;-76
2022/05/18 12:33:02;;;;;;;3.55;1.60;;;;;;;;;;5035994;28;20109;-76
2022/05/18 12:35:33;;;;;;;4.00;1.90;;;;;;;;;;5051793;28;20087;-75
2022/05/18 12:38:09;;;;;;;7.72;2.13;;;;;;;;;;5035429;28;20562;-76
2022/05/18 12:40:45;;;;;;;5.93;2.03;;;;;;;;;;5037866;28;20036;-75
2022/05/18 12:43:16;;;;;;;4.15;1.77;;;;;;;;;;5071030;28;20021;-75
2022/05/18 12:45:44;;;;;;;3.67;1.92;;;;;;;;;;5056951;28;20115;-75
2022/05/18 12:48:12;;;;;;;5.00;1.92;;;;;;;;;;5080691;28;20109;-76
2022/05/18 12:50:38;;;;;;;;;;;;;;;;;;5054400;28;20108;-76
2022/05/18 12:53:11;;;;;;;4.55;2.22;;;;;;;;;;5053855;28;20467;-76
2022/05/18 12:55:36;;;;;;;5.05;1.52;;;;;;;;;;5054157;28;20048;-77
2022/05/18 12:58:08;;;;;;;5.13;1.88;;;;;;;;;;5041806;28;20098;-77
2022/05/18 13:00:53;;;;;;;6.35;1.90;;;;;;;;;;5065383;28;20112;-76
2022/05/18 13:03:19;;;;;;;5.60;1.77;;;;;;;;;;5072881;28;20097;-77
2022/05/18 13:05:52;;;;;;;4.30;2.47;;;;;;;;;;5037534;28;20154;-76
2022/05/18 13:08:17;;;;;;;5.28;1.95;;;;;;;;;;5070889;28;20055;-76
2022/05/18 13:11:02;;;;;;;6.15;1.75;;;;;;;;;;5050409;28;20068;-76
2022/05/18 13:13:33;;;;;;;4.35;1.75;;;;;;;;;;5039151;28;20024;-75
2022/05/18 13:16:00;;;;;;;6.53;2.20;;;;;;;;;;5053633;28;20093;-75
2022/05/18 13:18:33;;;;;;;4.13;1.70;;;;;;;;;;5050690;28;20102;-76
2022/05/18 13:20:59;;;;;;;5.80;1.77;;;;;;;;;;5049131;28;20036;-77
2022/05/18 13:23:29;;;;;;;6.75;2.05;;;;;;;;;;5036640;28;20051;-76
2022/05/18 13:25:58;;;;;;;3.33;1.65;;;;;;;;;;5052986;28;20029;-77
2022/05/18 13:28:30;;;;;;;5.57;1.65;;;;;;;;;;5053627;28;20056;-77
2022/05/18 13:30:58;;;;;;;2.92;1.70;;;;;;;;;;5053478;28;20041;-77
2022/05/18 13:33:24;;;;;;;4.93;2.10;;;;;;;;;;5053868;28;20056;-75
2022/05/18 13:35:51;;;;;;;6.15;2.03;;;;;;;;;;5052811;28;20499;-77
2022/05/18 13:38:20;;;;;;;3.70;1.95;;;;;;;;;;5036713;28;20043;-77
2022/05/18 13:40:54;;;;;;;3.88;1.83;;;;;;;;;;5042305;28;20094;-76
2022/05/18 13:43:21;;;;;;;4.80;2.05;;;;;;;;;;5076864;28;20067;-76
2022/05/18 13:45:48;;;;;;;3.70;1.98;;;;;;;;;;5035277;28;20036;-75
2022/05/18 13:48:14;;;;;;;6.47;1.83;;;;;;;;;;5034828;28;20091;-77
2022/05/18 13:50:42;;;;;;;4.25;1.73;;;;;;;;;;5067907;28;20028;-77
2022/05/18 13:53:28;;;;;;;4.07;1.65;;;;;;;;;;5067623;28;20078;-76
2022/05/18 13:55:56;;;;;;;6.63;2.33;;;;;;;;;;5034626;28;20059;-77
2022/05/18 13:58:22;;;;;;;5.00;1.80;;;;;;;;;;5036696;28;20115;-75
2022/05/18 14:00:49;;;;;;;5.07;1.90;;;;;;;;;;5036742;28;20028;-76
2022/05/18 14:03:16;;;;;;;4.95;1.75;;;;;;;;;;5032984;28;20081;-77
2022/05/18 14:05:44;;;;;;;3.42;1.90;;;;;;;;;;5008048;28;20024;-77
2022/05/18 14:08:19;;;;;;;5.03;1.90;;;;;;;;;;5049649;28;20035;-77
2022/05/18 14:10:45;;;;;;;7.88;2.60;;;;;;;;;;5049116;28;20028;-75
2022/05/18 14:13:10;;;;;;;4.28;2.17;;;;;;;;;;5036371;28;20035;-77
2022/05/18 14:15:37;;;;;;;4.88;2.03;;;;;;;;;;5053016;28;20472;-75
2022/05/18 14:18:05;;;;;;;5.30;2.03;;;;;;;;;;5070903;28;20028;-76
2022/05/18 14:20:36;;;;;;;3.58;1.73;;;;;;;;;;5036354;28;20036;-75
2022/05/18 14:23:04;;;;;;;4.15;2.10;;;;;;;;;;5059064;28;20032;-76
2022/05/18 14:25:33;;;;;;;5.07;2.53;;;;;;;;;;5068271;28;20035;-76
2022/05/18 14:28:04;;;;;;;5.70;1.90;;;;;;;;;;5052851;28;20177;-76
2022/05/18 14:30:34;;;;;;;6.50;2.00;;;;;;;;;;5070346;28;20551;-76
2022/05/18 14:33:05;;;;;;;4.20;2.00;;;;;;;;;;5035372;28;20039;-76
2022/05/18 14:35:34;;;;;;;5.00;2.00;;;;;;;;;;5036335;28;20118;-75
2022/05/18 14:38:03;;;;;;;4.63;1.73;;;;;;;;;;5052136;28;20103;-76
2022/05/18 14:40:33;;;;;;;4.65;1.63;;;;;;;;;;5052448;28;20123;-76
2022/05/18 14:42:59;;;;;;;4.95;2.00;;;;;;;;;;5052041;28;20081;-77
2022/05/18 14:45:27;;;;;;;4.65;1.83;;;;;;;;;;5032859;28;20376;-76
2022/05/18 14:47:58;;;;;;;5.22;2.20;;;;;;;;;;5044349;28;20162;-77
2022/05/18 14:50:29;;;;;;;9.63;2.03;;;;;;;;;;5036613;28;20029;-76
2022/05/18 14:53:00;;;;;;;4.80;2.03;;;;;;;;;;5053621;28;20078;-77
2022/05/18 14:55:27;;;;;;;4.88;1.85;;;;;;;;;;5056458;28;20050;-77
2022/05/18 14:57:54;;;;;;;6.93;2.63;;;;;;;;;;5055855;28;20025;-76
2022/05/18 15:00:25;;;;;;;6.25;2.03;;;;;;;;;;5053083;28;20028;-76
2022/05/18 15:02:52;;;;;;;7.25;1.60;;;;;;;;;;5036178;28;20036;-76
2022/05/18 15:05:27;;;;;;;3.38;1.83;;;;;;;;;;5069819;28;20055;-76